Time;durP1;ratioP1;P1;durP2;ratioP2;P2;SDS_P1;SDS_P2;PMS_P1;PMS_P2;Temp;Humidity;BMP_temperature;BMP_pressure;BME280_temperature;BME280_humidity;BME280_pressure;Samples;Min_cycle;Max_cycle;Signal;HPM_P1;HPM_P2
2023/03/23 00:01:22;;;;;;;5.10;3.40;;;13.80;99.90;;;;;;5047917;28;20423;-78
2023/03/23 00:03:53;;;;;;;4.00;3.80;;;13.70;99.90;;;;;;5058145;28;20569;-78
2023/03/23 00:06:20;;;;;;;4.53;4.23;;;13.80;99.90;;;;;;5055838;28;20455;-78
2023/03/23 00:08:56;;;;;;;4.70;4.37;;;13.80;99.90;;;;;;5059727;28;20430;-77
2023/03/23 00:11:32;;;;;;;4.60;4.20;;;13.80;99.90;;;;;;5063358;28;20450;-78
2023/03/23 00:14:00;;;;;;;4.30;3.90;;;13.70;99.90;;;;;;5057152;28;20907;-78
2023/03/23 00:16:30;;;;;;;5.30;3.93;;;13.70;99.90;;;;;;5061042;28;20592;-77
2023/03/23 00:19:04;;;;;;;4.20;3.90;;;13.60;99.90;;;;;;5045384;28;20443;-77
2023/03/23 00:21:34;;;;;;;4.77;4.33;;;13.70;99.90;;;;;;5041096;28;20462;-77
2023/03/23 00:24:09;;;;;;;4.90;4.50;;;13.60;99.90;;;;;;5039665;28;20899;-80
2023/03/23 00:26:40;;;;;;;5.10;4.70;;;13.60;99.90;;;;;;5033692;28;20435;-78
2023/03/23 00:29:16;;;;;;;4.40;4.00;;;13.60;99.90;;;;;;5031863;28;20432;-77
2023/03/23 00:31:46;;;;;;;3.83;3.63;;;13.50;99.90;;;;;;5039045;28;20428;-77
2023/03/23 00:34:19;;;;;;;4.47;4.07;;;13.60;99.90;;;;;;5044859;28;20489;-79
2023/03/23 00:36:46;;;;;;;3.93;3.60;;;13.60;99.90;;;;;;5062585;28;20415;-78
2023/03/23 00:39:12;;;;;;;3.83;3.53;;;13.60;99.90;;;;;;5055292;28;20431;-79
2023/03/23 00:41:38;;;;;;;3.83;3.53;;;13.60;99.90;;;;;;5045675;28;20480;-77
2023/03/23 00:44:04;;;;;;;3.77;3.47;;;13.70;99.90;;;;;;5065748;28;20422;-77
2023/03/23 00:46:30;;;;;;;3.83;3.50;;;13.60;99.90;;;;;;5055794;28;20291;-77
2023/03/23 00:48:56;;;;;;;3.80;3.60;;;13.70;99.90;;;;;;5043912;28;20184;-76
2023/03/23 00:51:23;;;;;;;4.50;3.97;;;13.70;99.90;;;;;;5052024;28;20183;-76
2023/03/23 00:53:50;;;;;;;3.70;3.40;;;13.70;99.90;;;;;;5068196;28;20510;-77
2023/03/23 00:56:15;;;;;;;3.27;3.07;;;13.60;99.90;;;;;;5059309;28;20414;-78
2023/03/23 00:58:41;;;;;;;3.60;3.30;;;13.60;99.90;;;;;;5065181;28;20425;-78
2023/03/23 01:01:07;;;;;;;3.40;3.10;;;13.70;99.90;;;;;;5066382;28;20516;-76
2023/03/23 01:03:34;;;;;;;3.57;3.37;;;13.70;99.90;;;;;;5052766;28;20426;-76
2023/03/23 01:06:05;;;;;;;3.77;3.13;;;13.80;99.90;;;;;;5059110;28;20172;-77
2023/03/23 01:08:31;;;;;;;4.20;3.80;;;13.80;99.90;;;;;;5048273;28;20489;-77
2023/03/23 01:11:03;;;;;;;3.80;3.60;;;13.80;99.90;;;;;;5050065;28;20424;-77
2023/03/23 01:13:29;;;;;;;3.70;3.40;;;13.90;99.90;;;;;;5043510;28;20267;-76
2023/03/23 01:15:55;;;;;;;3.70;3.50;;;13.80;99.90;;;;;;5046632;28;20563;-75
2023/03/23 01:18:20;;;;;;;3.60;3.30;;;13.90;99.90;;;;;;5052487;28;20224;-76
2023/03/23 01:20:46;;;;;;;3.20;3.00;;;13.80;99.90;;;;;;5049498;28;20181;-75
2023/03/23 01:23:12;;;;;;;3.77;3.57;;;13.90;99.90;;;;;;5051004;28;20208;-77
2023/03/23 01:25:37;;;;;;;4.67;3.70;;;13.90;99.90;;;;;;5051516;28;20246;-75
2023/03/23 01:28:03;;;;;;;3.30;3.20;;;13.90;99.90;;;;;;5050764;28;20246;-75
2023/03/23 01:30:29;;;;;;;5.30;3.40;;;13.90;99.90;;;;;;5049555;28;20184;-75
2023/03/23 01:32:55;;;;;;;4.70;3.30;;;13.90;99.90;;;;;;5050434;28;20205;-75
2023/03/23 01:35:21;;;;;;;3.17;3.00;;;13.90;99.90;;;;;;5051199;28;20579;-75
2023/03/23 01:37:47;;;;;;;4.37;4.07;;;14.00;99.90;;;;;;5049613;28;20412;-75
2023/03/23 01:40:14;;;;;;;4.03;3.73;;;14.10;99.90;;;;;;5050996;28;20174;-76
2023/03/23 01:42:40;;;;;;;4.10;3.80;;;14.10;99.90;;;;;;5035340;28;20519;-76
2023/03/23 01:45:25;;;;;;;4.30;3.90;;;14.20;99.90;;;;;;5031000;28;20886;-75
2023/03/23 01:47:59;;;;;;;4.10;3.80;;;14.10;99.90;;;;;;5027244;28;20713;-75
2023/03/23 01:50:27;;;;;;;3.63;3.43;;;14.10;99.90;;;;;;5032365;28;20423;-75
2023/03/23 01:52:57;;;;;;;3.90;3.70;;;14.10;99.90;;;;;;5030317;28;20429;-76
2023/03/23 01:55:26;;;;;;;3.87;3.67;;;14.00;99.90;;;;;;5008335;28;20415;-75
2023/03/23 01:57:52;;;;;;;3.70;3.40;;;14.00;99.90;;;;;;5017421;28;20427;-75
2023/03/23 02:00:18;;;;;;;3.83;3.63;;;14.00;99.90;;;;;;5013618;28;20445;-76
2023/03/23 02:02:48;;;;;;;4.00;3.70;;;14.00;99.90;;;;;;5013244;28;20462;-76
2023/03/23 02:05:23;;;;;;;3.83;3.63;;;13.90;99.90;;;;;;5014015;28;20634;-76
2023/03/23 02:07:51;;;;;;;4.20;3.90;;;13.90;99.90;;;;;;5001937;28;20416;-76
2023/03/23 02:10:17;;;;;;;4.00;3.60;;;13.90;99.90;;;;;;5028654;28;20424;-77
2023/03/23 02:12:42;;;;;;;3.57;3.37;;;14.00;99.90;;;;;;5030954;28;20754;-77
2023/03/23 02:15:09;;;;;;;3.93;3.63;;;13.90;99.90;;;;;;5032689;28;20413;-77
2023/03/23 02:17:47;;;;;;;4.00;3.57;;;13.90;99.90;;;;;;5028027;28;20807;-77
2023/03/23 02:20:35;;;;;;;4.17;3.97;;;13.90;99.90;;;;;;5028761;28;20799;-78
2023/03/23 02:23:00;;;;;;;3.50;3.30;;;13.70;99.90;;;;;;5025632;28;20492;-77
2023/03/23 02:25:38;;;;;;;3.20;3.10;;;13.80;99.90;;;;;;5031465;28;20436;-76
2023/03/23 02:28:16;;;;;;;3.80;3.60;;;13.80;99.90;;;;;;5030870;28;20174;-76
2023/03/23 02:30:44;;;;;;;4.20;3.90;;;13.60;99.90;;;;;;5006383;28;20494;-77
2023/03/23 02:33:44;;;;;;;3.93;3.63;;;13.30;99.90;;;;;;5013745;28;20441;-77
2023/03/23 02:36:37;;;;;;;4.10;3.90;;;13.40;99.90;;;;;;5013684;28;20527;-77
2023/03/23 02:39:17;;;;;;;4.60;4.33;;;13.40;99.90;;;;;;5013469;28;20424;-77
2023/03/23 02:41:51;;;;;;;4.93;4.63;;;13.20;99.90;;;;;;5011066;28;20486;-77
2023/03/23 02:44:18;;;;;;;4.07;3.77;;;13.00;99.90;;;;;;5035261;28;20762;-78
2023/03/23 02:46:44;;;;;;;4.10;3.90;;;13.00;99.90;;;;;;5053103;28;20415;-77
2023/03/23 02:49:14;;;;;;;4.40;4.10;;;13.00;99.90;;;;;;5032422;28;20415;-76
2023/03/23 02:51:40;;;;;;;4.10;3.90;;;13.10;99.90;;;;;;5032126;28;20462;-76
2023/03/23 02:54:07;;;;;;;3.87;3.67;;;12.80;99.90;;;;;;5048106;28;20448;-77
2023/03/23 02:56:34;;;;;;;3.90;3.70;;;12.90;99.90;;;;;;5050401;28;21049;-76
2023/03/23 02:59:00;;;;;;;4.50;4.10;;;12.90;99.90;;;;;;5041818;28;20451;-76
2023/03/23 03:01:25;;;;;;;4.37;4.17;;;12.90;99.90;;;;;;5038680;28;20543;-76
2023/03/23 03:03:53;;;;;;;4.53;4.23;;;13.10;99.90;;;;;;5033046;28;20298;-76
2023/03/23 03:06:40;;;;;;;4.40;4.10;;;13.00;99.90;;;;;;5031516;28;20184;-77
2023/03/23 03:09:25;;;;;;;4.03;3.83;;;13.10;99.90;;;;;;5032261;28;20420;-76
2023/03/23 03:11:56;;;;;;;4.13;3.83;;;13.10;99.90;;;;;;5031465;28;20440;-77
2023/03/23 03:14:29;;;;;;;3.87;3.57;;;13.10;99.90;;;;;;5032015;28;20400;-77
2023/03/23 03:17:00;;;;;;;5.60;3.47;;;13.20;99.90;;;;;;5032664;28;20397;-76
2023/03/23 03:19:33;;;;;;;3.80;3.60;;;13.30;99.90;;;;;;5042298;28;20856;-77
2023/03/23 03:21:59;;;;;;;3.27;3.17;;;13.20;99.90;;;;;;5052370;28;20467;-77
2023/03/23 03:24:29;;;;;;;3.93;3.63;;;13.20;99.90;;;;;;5049565;28;20461;-77
2023/03/23 03:26:59;;;;;;;4.07;3.77;;;13.30;99.90;;;;;;5052008;28;20414;-76
2023/03/23 03:29:32;;;;;;;3.93;3.73;;;13.40;99.90;;;;;;5039280;28;20510;-76
2023/03/23 03:32:00;;;;;;;4.00;3.70;;;13.40;99.90;;;;;;5032556;28;20400;-76
2023/03/23 03:34:26;;;;;;;3.97;3.77;;;13.30;99.90;;;;;;5030882;28;20419;-76
2023/03/23 03:36:58;;;;;;;3.70;3.40;;;13.40;99.90;;;;;;5050174;28;20438;-77
2023/03/23 03:39:25;;;;;;;3.63;3.40;;;13.40;99.90;;;;;;5039483;28;20833;-77
2023/03/23 03:41:50;;;;;;;4.33;3.93;;;13.40;99.90;;;;;;5038635;28;20476;-76
2023/03/23 03:44:16;;;;;;;4.53;3.90;;;13.40;99.90;;;;;;5014360;28;20493;-77
2023/03/23 03:46:42;;;;;;;3.93;3.63;;;13.30;99.90;;;;;;5031314;28;20173;-77
2023/03/23 03:49:11;;;;;;;3.80;3.60;;;13.30;99.90;;;;;;5012281;28;20216;-76
2023/03/23 03:51:38;;;;;;;3.67;3.47;;;13.30;99.90;;;;;;5011716;28;20169;-76
2023/03/23 03:54:03;;;;;;;3.70;3.50;;;13.40;99.90;;;;;;5012822;28;20402;-76
2023/03/23 03:56:31;;;;;;;3.90;3.60;;;13.40;99.90;;;;;;4994195;28;20432;-76
2023/03/23 03:58:57;;;;;;;4.07;3.83;;;13.40;99.90;;;;;;5011759;28;20530;-76
2023/03/23 04:01:23;;;;;;;3.80;3.50;;;13.40;99.90;;;;;;5011289;28;20439;-77
2023/03/23 04:03:50;;;;;;;3.80;3.47;;;13.40;99.90;;;;;;5025044;28;20480;-76
2023/03/23 04:06:17;;;;;;;3.90;3.60;;;13.40;99.90;;;;;;5027676;28;20429;-76
2023/03/23 04:08:44;;;;;;;4.40;3.30;;;13.40;99.90;;;;;;5011779;28;20409;-76
2023/03/23 04:11:12;;;;;;;3.60;3.40;;;13.40;99.90;;;;;;5012165;28;20501;-77
2023/03/23 04:13:38;;;;;;;3.57;3.27;;;13.50;99.90;;;;;;5011038;28;20501;-77
2023/03/23 04:16:04;;;;;;;3.30;3.10;;;13.50;99.90;;;;;;5012534;28;20419;-77
2023/03/23 04:18:32;;;;;;;3.50;3.30;;;13.50;99.90;;;;;;5011550;28;20430;-77
2023/03/23 04:20:59;;;;;;;3.30;3.10;;;13.40;99.90;;;;;;5028609;28;20425;-77
2023/03/23 04:23:25;;;;;;;3.83;3.53;;;13.40;99.90;;;;;;5023245;28;20541;-76
2023/03/23 04:25:53;;;;;;;3.40;3.20;;;13.30;99.90;;;;;;5025829;28;20429;-76
2023/03/23 04:28:23;;;;;;;3.50;3.30;;;13.40;99.90;;;;;;5033712;28;20907;-78
2023/03/23 04:30:55;;;;;;;3.43;3.20;;;13.30;99.90;;;;;;5035491;28;20383;-78
2023/03/23 04:33:26;;;;;;;3.50;3.30;;;13.50;99.90;;;;;;5029033;28;20483;-78
2023/03/23 04:36:00;;;;;;;3.50;3.20;;;13.40;99.90;;;;;;5030094;28;20469;-77
2023/03/23 04:38:27;;;;;;;3.83;3.53;;;13.40;99.90;;;;;;5007943;28;20460;-77
2023/03/23 04:40:54;;;;;;;3.40;3.20;;;13.30;99.90;;;;;;5015564;28;20505;-77
2023/03/23 04:43:22;;;;;;;3.40;3.20;;;13.30;99.90;;;;;;5014930;28;20523;-77
2023/03/23 04:46:00;;;;;;;3.73;3.43;;;13.30;99.90;;;;;;4998022;28;20428;-76
2023/03/23 04:48:29;;;;;;;3.40;3.20;;;13.30;99.90;;;;;;4997345;28;20418;-77
2023/03/23 04:50:56;;;;;;;3.03;2.87;;;13.30;99.90;;;;;;4998123;28;20991;-76
2023/03/23 04:53:22;;;;;;;3.73;3.40;;;13.40;99.90;;;;;;5014156;28;20507;-77
2023/03/23 04:55:48;;;;;;;3.20;3.00;;;13.30;99.90;;;;;;4997892;28;20411;-77
2023/03/23 04:58:16;;;;;;;2.80;2.60;;;13.30;99.90;;;;;;5015448;28;20432;-76
2023/03/23 05:00:49;;;;;;;3.73;3.53;;;13.30;99.90;;;;;;5028389;28;20453;-76
2023/03/23 05:03:16;;;;;;;4.10;3.83;;;13.30;99.90;;;;;;5030244;28;20469;-76
2023/03/23 05:05:43;;;;;;;3.53;3.23;;;13.20;99.90;;;;;;5035162;28;20430;-76
2023/03/23 05:08:08;;;;;;;3.23;2.93;;;13.30;99.90;;;;;;5036799;28;20744;-77
2023/03/23 05:10:34;;;;;;;2.80;2.60;;;13.40;99.90;;;;;;5034548;28;20404;-78
2023/03/23 05:13:00;;;;;;;3.20;2.67;;;13.40;99.90;;;;;;5025999;28;20178;-77
2023/03/23 05:15:26;;;;;;;3.10;2.80;;;13.40;99.90;;;;;;5009601;28;20608;-78
2023/03/23 05:17:52;;;;;;;3.23;2.60;;;13.30;99.90;;;;;;5015467;28;20173;-78
2023/03/23 05:20:21;;;;;;;3.40;3.20;;;13.40;99.90;;;;;;5015059;28;20234;-77
2023/03/23 05:22:49;;;;;;;4.57;3.50;;;13.40;99.90;;;;;;5014101;28;20452;-78
2023/03/23 05:25:18;;;;;;;3.83;3.53;;;13.40;99.90;;;;;;5014477;28;20425;-77
2023/03/23 05:27:48;;;;;;;3.40;3.20;;;13.30;99.90;;;;;;5014472;28;20409;-78
2023/03/23 05:30:16;;;;;;;3.70;3.40;;;13.30;99.90;;;;;;5018018;28;20459;-77
2023/03/23 05:32:44;;;;;;;3.33;3.13;;;13.30;99.90;;;;;;5007963;28;20421;-77
2023/03/23 05:35:11;;;;;;;4.17;3.83;;;13.30;99.90;;;;;;5031971;28;20514;-76
2023/03/23 05:37:38;;;;;;;3.90;3.70;;;13.20;99.90;;;;;;5033639;28;20542;-76
2023/03/23 05:40:05;;;;;;;4.60;3.50;;;13.30;99.90;;;;;;5031834;28;20420;-77
2023/03/23 05:42:34;;;;;;;3.93;3.73;;;13.40;99.90;;;;;;5025312;28;20474;-76
2023/03/23 05:45:00;;;;;;;3.27;3.07;;;13.30;99.90;;;;;;5033207;28;20449;-77
2023/03/23 05:47:27;;;;;;;4.10;3.90;;;13.40;99.90;;;;;;5034703;28;20424;-78
2023/03/23 05:49:53;;;;;;;5.03;4.63;;;13.50;99.90;;;;;;5034104;28;20903;-77
2023/03/23 05:52:19;;;;;;;4.37;4.17;;;13.50;99.90;;;;;;5034763;28;20419;-77
2023/03/23 05:54:45;;;;;;;5.80;5.60;;;13.50;99.90;;;;;;5048565;28;20418;-77
2023/03/23 05:57:11;;;;;;;4.13;3.93;;;13.40;99.90;;;;;;5054736;28;20506;-77
2023/03/23 05:59:37;;;;;;;3.70;3.50;;;13.30;99.90;;;;;;5053661;28;20176;-77
2023/03/23 06:02:04;;;;;;;4.80;4.50;;;13.40;99.90;;;;;;5056467;28;20459;-77
2023/03/23 06:04:30;;;;;;;5.10;4.70;;;13.40;99.90;;;;;;5054866;28;20480;-77
2023/03/23 06:06:56;;;;;;;3.67;3.47;;;13.40;99.90;;;;;;5036078;28;20504;-77
2023/03/23 06:09:23;;;;;;;5.20;4.90;;;13.50;99.90;;;;;;5034069;28;20430;-77
2023/03/23 06:11:49;;;;;;;7.77;6.40;;;13.50;99.90;;;;;;5043502;28;20442;-77
2023/03/23 06:14:16;;;;;;;3.53;3.23;;;13.50;99.90;;;;;;5051358;28;20765;-77
2023/03/23 06:16:42;;;;;;;4.80;4.50;;;13.50;99.90;;;;;;5049950;28;20406;-77
2023/03/23 06:19:07;;;;;;;5.00;4.70;;;13.50;99.90;;;;;;5053396;28;20456;-76
2023/03/23 06:21:34;;;;;;;4.30;4.00;;;13.60;99.90;;;;;;5052904;28;20201;-77
2023/03/23 06:23:59;;;;;;;4.80;4.50;;;13.70;99.90;;;;;;5051651;28;20184;-77
2023/03/23 06:26:33;;;;;;;4.77;4.37;;;13.70;99.90;;;;;;5041801;28;20427;-77
2023/03/23 06:28:59;;;;;;;3.67;3.47;;;13.70;99.90;;;;;;5053480;28;20425;-76
2023/03/23 06:31:27;;;;;;;3.97;3.60;;;13.70;99.90;;;;;;5053251;28;20429;-77
2023/03/23 06:33:55;;;;;;;3.70;3.50;;;13.70;99.90;;;;;;5044867;28;20205;-76
2023/03/23 06:36:22;;;;;;;4.53;4.23;;;13.60;99.90;;;;;;5031200;28;20416;-77
2023/03/23 06:38:48;;;;;;;4.80;4.50;;;13.50;99.90;;;;;;5036467;28;20415;-76
2023/03/23 06:41:14;;;;;;;4.50;4.20;;;13.50;99.90;;;;;;5040592;28;20462;-77
2023/03/23 06:43:40;;;;;;;4.80;4.50;;;13.50;99.90;;;;;;5014605;28;20446;-78
2023/03/23 06:46:06;;;;;;;4.60;4.30;;;13.60;99.90;;;;;;5032724;28;20227;-77
2023/03/23 06:48:32;;;;;;;3.90;3.60;;;13.70;99.90;;;;;;5031985;28;20400;-78
2023/03/23 06:50:58;;;;;;;3.63;3.43;;;13.70;99.90;;;;;;5012291;28;20420;-77
2023/03/23 06:53:24;;;;;;;4.77;4.27;;;13.90;99.90;;;;;;4995655;28;20767;-77
2023/03/23 06:55:51;;;;;;;4.10;3.77;;;13.90;99.90;;;;;;4994957;28;20464;-77
2023/03/23 06:58:16;;;;;;;4.37;4.03;;;13.90;99.90;;;;;;5013343;28;20432;-78
2023/03/23 07:00:42;;;;;;;4.73;4.33;;;13.90;99.90;;;;;;5012474;28;20876;-77
2023/03/23 07:03:08;;;;;;;4.60;4.20;;;13.90;99.90;;;;;;5011936;28;20457;-76
2023/03/23 07:05:35;;;;;;;3.97;3.67;;;14.00;99.90;;;;;;5032994;28;20182;-77
2023/03/23 07:08:04;;;;;;;4.80;4.50;;;14.00;99.90;;;;;;4999279;28;20454;-76
2023/03/23 07:10:30;;;;;;;4.23;3.93;;;13.90;99.90;;;;;;5033255;28;20487;-77
2023/03/23 07:12:56;;;;;;;4.93;4.40;;;13.90;99.90;;;;;;5016214;28;20484;-77
2023/03/23 07:15:22;;;;;;;4.47;4.17;;;13.90;99.90;;;;;;5013798;28;20743;-77
2023/03/23 07:17:48;;;;;;;4.80;4.50;;;14.00;99.90;;;;;;5012642;28;20425;-76
2023/03/23 07:20:14;;;;;;;4.10;3.63;;;13.90;99.90;;;;;;5013067;28;20401;-77
2023/03/23 07:22:40;;;;;;;4.20;3.90;;;14.00;99.90;;;;;;5011698;28;20228;-77
2023/03/23 07:25:07;;;;;;;6.83;6.00;;;14.00;99.90;;;;;;5007741;28;20461;-77
2023/03/23 07:27:33;;;;;;;4.00;3.70;;;14.00;99.90;;;;;;5015427;28;20409;-77
2023/03/23 07:29:59;;;;;;;4.07;3.87;;;14.10;99.90;;;;;;5031304;28;20422;-77
2023/03/23 07:32:25;;;;;;;4.13;3.83;;;14.00;99.90;;;;;;5015040;28;20527;-76
2023/03/23 07:34:51;;;;;;;5.07;4.70;;;14.00;99.90;;;;;;5025384;28;20232;-78
2023/03/23 07:37:17;;;;;;;7.67;7.17;;;14.00;99.90;;;;;;5027109;28;20422;-80
2023/03/23 07:39:43;;;;;;;4.20;3.90;;;14.10;99.90;;;;;;5012322;28;20415;-81
2023/03/23 07:42:09;;;;;;;5.87;5.47;;;14.10;99.90;;;;;;5016352;28;20485;-78
2023/03/23 07:44:35;;;;;;;5.40;5.07;;;14.10;99.90;;;;;;5030001;28;20173;-79
2023/03/23 07:47:02;;;;;;;4.63;3.57;;;14.10;99.90;;;;;;5030989;28;20787;-78
2023/03/23 07:49:27;;;;;;;6.30;5.90;;;14.10;99.90;;;;;;5031355;28;20173;-78
2023/03/23 07:51:53;;;;;;;4.73;4.30;;;14.10;99.90;;;;;;5036216;28;20455;-80
2023/03/23 07:54:19;;;;;;;5.07;3.37;;;14.20;99.90;;;;;;5032270;28;20925;-79
2023/03/23 07:56:45;;;;;;;6.47;6.07;;;14.20;99.90;;;;;;5033686;28;20173;-79
2023/03/23 07:59:12;;;;;;;7.43;6.97;;;14.30;99.90;;;;;;5056302;28;20272;-80
2023/03/23 08:01:39;;;;;;;3.80;3.60;;;14.30;99.90;;;;;;5022780;28;20656;-79
2023/03/23 08:04:05;;;;;;;4.03;3.63;;;14.30;99.90;;;;;;5035166;28;20522;-79
2023/03/23 08:06:33;;;;;;;6.80;6.30;;;14.30;99.90;;;;;;5041663;28;20425;-79
2023/03/23 08:08:59;;;;;;;4.73;4.37;;;14.30;99.90;;;;;;5045813;28;20415;-77
2023/03/23 08:11:26;;;;;;;5.13;4.73;;;14.30;99.90;;;;;;5036166;28;20417;-76
2023/03/23 08:13:52;;;;;;;5.30;4.87;;;14.40;99.90;;;;;;5036426;28;20748;-75
2023/03/23 08:16:19;;;;;;;4.37;3.97;;;14.50;99.90;;;;;;5052437;28;20880;-78
2023/03/23 08:18:45;;;;;;;4.18;3.88;;;14.70;99.90;;;;;;5053612;28;20587;-77
2023/03/23 08:21:12;;;;;;;6.67;6.37;;;14.70;99.90;;;;;;5056213;28;20166;-78
2023/03/23 08:23:39;;;;;;;6.37;5.83;;;14.70;99.90;;;;;;5055070;28;20520;-77
2023/03/23 08:26:07;;;;;;;4.43;4.20;;;14.70;99.90;;;;;;5054636;28;20400;-77
2023/03/23 08:28:37;;;;;;;3.40;3.13;;;14.70;99.90;;;;;;5050703;28;20927;-77
2023/03/23 08:31:09;;;;;;;6.83;6.30;;;14.70;99.90;;;;;;5039096;28;20395;-77
2023/03/23 08:33:36;;;;;;;5.60;5.40;;;14.70;99.90;;;;;;5037010;28;20420;-78
2023/03/23 08:36:02;;;;;;;3.60;3.40;;;14.60;99.90;;;;;;5040510;28;20520;-77
2023/03/23 08:38:29;;;;;;;6.37;6.07;;;14.60;99.90;;;;;;5028372;28;20426;-76
2023/03/23 08:41:00;;;;;;;4.23;4.00;;;14.50;99.90;;;;;;5031396;28;21116;-76
2023/03/23 08:43:27;;;;;;;3.87;3.57;;;14.50;99.90;;;;;;4998581;28;20459;-76
2023/03/23 08:45:53;;;;;;;4.17;3.87;;;14.50;99.90;;;;;;5014852;28;20407;-76
2023/03/23 08:48:20;;;;;;;3.40;3.30;;;14.50;99.90;;;;;;4998231;28;20456;-77
2023/03/23 08:50:45;;;;;;;3.70;3.10;;;14.50;99.90;;;;;;5014865;28;20498;-77
2023/03/23 08:53:11;;;;;;;3.50;3.20;;;14.60;99.90;;;;;;5015772;28;20874;-77
2023/03/23 08:55:38;;;;;;;3.53;3.30;;;14.50;99.90;;;;;;5014651;28;20171;-77
2023/03/23 08:58:04;;;;;;;3.20;3.00;;;14.60;99.90;;;;;;5031934;28;20224;-77
2023/03/23 09:00:30;;;;;;;3.93;3.50;;;14.60;99.90;;;;;;5015362;28;20400;-76
2023/03/23 09:02:56;;;;;;;3.13;2.93;;;14.50;99.90;;;;;;5014171;28;20454;-76
2023/03/23 09:05:26;;;;;;;2.80;2.60;;;14.60;99.90;;;;;;4966103;28;20494;-76
2023/03/23 09:07:58;;;;;;;5.03;4.73;;;14.60;99.90;;;;;;4997176;28;20414;-76
2023/03/23 09:10:24;;;;;;;3.67;3.13;;;14.70;99.90;;;;;;5031012;28;20426;-76
2023/03/23 09:12:52;;;;;;;2.40;2.30;;;14.80;99.90;;;;;;5034197;28;20424;-76
2023/03/23 09:15:18;;;;;;;5.67;5.30;;;14.90;99.90;;;;;;5017200;28;20398;-76
2023/03/23 09:17:46;;;;;;;4.07;3.77;;;14.90;99.90;;;;;;5033997;28;20822;-77
2023/03/23 09:20:14;;;;;;;4.57;3.77;;;14.90;99.90;;;;;;5017734;28;20423;-77
2023/03/23 09:22:42;;;;;;;5.90;3.40;;;14.90;99.90;;;;;;5014879;28;20463;-78
2023/03/23 09:25:10;;;;;;;3.30;3.10;;;14.80;99.90;;;;;;5014840;28;20737;-77
2023/03/23 09:27:38;;;;;;;4.17;3.93;;;14.80;99.90;;;;;;5003859;28;20925;-78
2023/03/23 09:30:11;;;;;;;5.50;3.60;;;14.80;99.90;;;;;;5029712;28;20824;-77
2023/03/23 09:32:38;;;;;;;6.60;6.17;;;14.80;99.90;;;;;;5032633;28;20439;-77
2023/03/23 09:35:08;;;;;;;3.63;3.37;;;14.70;99.90;;;;;;5030426;28;20502;-78
2023/03/23 09:37:35;;;;;;;6.10;5.50;;;14.80;99.90;;;;;;5009091;28;20896;-77
2023/03/23 09:40:03;;;;;;;5.77;5.43;;;14.70;99.90;;;;;;5027809;28;20417;-77
2023/03/23 09:42:47;;;;;;;3.70;3.50;;;14.70;99.90;;;;;;5031124;28;20485;-77
2023/03/23 09:45:21;;;;;;;7.07;6.20;;;14.70;99.90;;;;;;5032046;28;20803;-77
2023/03/23 09:48:17;;;;;;;4.97;4.57;;;14.70;99.90;;;;;;5023890;28;20414;-77
2023/03/23 09:50:47;;;;;;;6.43;4.27;;;14.70;99.90;;;;;;5028117;28;20474;-77
2023/03/23 09:53:19;;;;;;;7.00;6.50;;;14.70;99.90;;;;;;5027451;28;20419;-77
2023/03/23 09:55:45;;;;;;;5.30;4.70;;;14.80;99.90;;;;;;5026794;28;20797;-77
2023/03/23 09:58:32;;;;;;;4.97;2.83;;;14.80;99.90;;;;;;5032696;28;20408;-77
2023/03/23 10:01:04;;;;;;;3.27;2.87;;;14.90;99.90;;;;;;5031266;28;20608;-77
2023/03/23 10:03:40;;;;;;;4.97;4.47;;;14.80;99.90;;;;;;5030841;28;20817;-77
2023/03/23 10:06:10;;;;;;;4.37;3.93;;;14.80;99.90;;;;;;5030295;28;20402;-77
2023/03/23 10:08:43;;;;;;;3.07;2.90;;;14.80;99.90;;;;;;5031489;28;20476;-78
2023/03/23 10:11:37;;;;;;;3.80;3.40;;;14.90;99.90;;;;;;5030439;28;20528;-77
2023/03/23 10:14:22;;;;;;;5.63;5.10;;;14.90;99.90;;;;;;5032242;28;20398;-77
2023/03/23 10:17:04;;;;;;;3.47;3.27;;;15.00;99.90;;;;;;5029500;28;20423;-77
2023/03/23 10:19:41;;;;;;;6.00;4.27;;;15.00;99.90;;;;;;5011656;28;20424;-78
2023/03/23 10:22:12;;;;;;;4.53;3.97;;;15.10;99.90;;;;;;5031943;28;20444;-77
2023/03/23 10:25:01;;;;;;;6.50;6.10;;;15.20;99.90;;;;;;5030584;28;20419;-78
2023/03/23 10:27:51;;;;;;;3.53;3.23;;;15.40;99.90;;;;;;5019477;28;20416;-78
2023/03/23 10:30:32;;;;;;;5.70;5.20;;;15.50;99.90;;;;;;5031736;28;20397;-77
2023/03/23 10:33:15;;;;;;;3.63;3.20;;;15.80;99.90;;;;;;5012916;28;20470;-77
2023/03/23 10:36:00;;;;;;;4.50;3.10;;;15.90;99.30;;;;;;5027802;28;20518;-77
2023/03/23 10:38:52;;;;;;;4.97;4.40;;;15.90;98.20;;;;;;5032083;28;20393;-77
2023/03/23 10:41:19;;;;;;;4.10;3.67;;;15.90;98.50;;;;;;5027270;28;20593;-76
2023/03/23 10:43:50;;;;;;;6.20;5.80;;;15.80;98.60;;;;;;5031044;28;20439;-77
2023/03/23 10:46:18;;;;;;;5.03;4.63;;;15.80;99.00;;;;;;5028446;28;20408;-76
2023/03/23 10:48:44;;;;;;;5.50;3.80;;;15.80;99.90;;;;;;5031422;28;20416;-77
2023/03/23 10:51:13;;;;;;;3.27;3.07;;;15.70;99.90;;;;;;5042793;28;20406;-77
2023/03/23 10:53:50;;;;;;;6.40;5.90;;;15.50;99.90;;;;;;5031115;28;20179;-76
2023/03/23 10:56:47;;;;;;;5.33;5.03;;;15.40;99.90;;;;;;5027765;28;20510;-77
2023/03/23 10:59:41;;;;;;;5.47;5.13;;;15.20;99.90;;;;;;5030756;28;20742;-77
2023/03/23 11:02:16;;;;;;;2.53;2.33;;;14.90;99.90;;;;;;4994664;28;20969;-77
2023/03/23 11:04:59;;;;;;;2.87;2.77;;;14.90;99.90;;;;;;5009439;28;20426;-77
2023/03/23 11:07:30;;;;;;;3.23;3.03;;;14.70;99.90;;;;;;5030441;28;20506;-79
2023/03/23 11:10:03;;;;;;;4.00;3.80;;;14.60;99.90;;;;;;5027789;28;20750;-77
2023/03/23 11:12:33;;;;;;;3.30;3.10;;;14.50;99.90;;;;;;5031167;28;20514;-77
2023/03/23 11:15:22;;;;;;;3.60;3.40;;;14.40;99.90;;;;;;5026739;28;20409;-77
2023/03/23 11:18:07;;;;;;;4.80;4.40;;;14.30;99.90;;;;;;5031563;28;20417;-78
2023/03/23 11:20:39;;;;;;;7.60;7.10;;;14.30;99.90;;;;;;5029895;28;20500;-77
2023/03/23 11:23:22;;;;;;;5.50;5.10;;;14.20;99.90;;;;;;5031242;28;20448;-77
2023/03/23 11:26:07;;;;;;;4.00;3.70;;;14.20;99.90;;;;;;5024457;28;20432;-77
2023/03/23 11:28:35;;;;;;;6.73;6.33;;;14.10;99.90;;;;;;5029941;28;20421;-77
2023/03/23 11:31:03;;;;;;;3.63;3.43;;;14.00;99.90;;;;;;5031165;28;20424;-77
2023/03/23 11:33:51;;;;;;;6.90;6.60;;;13.90;99.90;;;;;;5028471;28;20407;-78
2023/03/23 11:36:16;;;;;;;5.73;5.33;;;14.00;99.90;;;;;;5015233;28;20429;-80
2023/03/23 11:38:44;;;;;;;5.17;2.87;;;13.90;99.90;;;;;;5026119;28;20419;-81
2023/03/23 11:41:12;;;;;;;2.97;2.80;;;13.90;99.90;;;;;;5031130;28;20218;-81
2023/03/23 11:43:43;;;;;;;5.77;5.57;;;13.90;99.90;;;;;;5010654;28;20470;-81
2023/03/23 11:46:34;;;;;;;4.33;4.23;;;13.90;99.90;;;;;;5011144;28;20943;-82
2023/03/23 11:49:14;;;;;;;4.33;4.13;;;13.90;99.90;;;;;;5009380;28;20432;-81
2023/03/23 11:51:46;;;;;;;2.53;2.30;;;13.90;99.90;;;;;;5010602;28;21023;-82
2023/03/23 11:54:17;;;;;;;2.83;2.53;;;13.80;99.90;;;;;;5017601;28;20416;-81
2023/03/23 11:56:47;;;;;;;2.40;2.30;;;13.90;99.90;;;;;;5024273;28;20482;-82
2023/03/23 11:59:16;;;;;;;2.80;2.60;;;13.80;99.90;;;;;;5050833;28;20948;-82
2023/03/23 12:01:51;;;;;;;5.60;5.30;;;13.80;99.90;;;;;;5016276;28;20966;-82
2023/03/23 12:04:39;;;;;;;2.80;2.30;;;13.80;99.90;;;;;;5033333;28;20439;-81
2023/03/23 12:07:17;;;;;;;3.00;2.80;;;13.80;99.90;;;;;;5033166;28;20410;-81
2023/03/23 12:10:24;;;;;;;2.47;2.27;;;13.90;99.90;;;;;;5052373;28;20738;-82
2023/03/23 12:12:55;;;;;;;2.47;2.37;;;13.90;99.90;;;;;;4988524;28;20435;-82
2023/03/23 12:15:31;;;;;;;2.30;2.20;;;13.90;99.90;;;;;;5011600;28;20756;-82
2023/03/23 12:18:14;;;;;;;2.30;2.20;;;13.90;99.90;;;;;;4996742;28;20412;-81
2023/03/23 12:20:48;;;;;;;2.47;2.37;;;13.90;99.90;;;;;;4994152;28;20429;-82
2023/03/23 12:23:33;;;;;;;2.40;2.30;;;13.90;99.90;;;;;;5025756;28;20464;-82
2023/03/23 12:26:07;;;;;;;2.60;2.50;;;13.90;99.90;;;;;;4994078;28;20424;-80
2023/03/23 12:28:55;;;;;;;3.00;2.90;;;13.90;99.90;;;;;;5013461;28;20405;-82
2023/03/23 12:31:48;;;;;;;3.20;3.00;;;13.90;99.90;;;;;;4994996;28;20424;-81
2023/03/23 12:34:31;;;;;;;3.43;3.13;;;13.90;99.90;;;;;;5012827;28;20431;-80
2023/03/23 12:37:24;;;;;;;3.10;3.00;;;14.10;99.90;;;;;;5029695;28;20496;-79
2023/03/23 12:40:23;;;;;;;3.10;2.90;;;14.00;99.90;;;;;;4995117;28;20775;-78
2023/03/23 12:42:58;;;;;;;3.20;3.00;;;14.10;99.90;;;;;;5044946;28;20518;-79
2023/03/23 12:45:56;;;;;;;3.73;3.53;;;14.20;99.90;;;;;;5039667;28;21136;-80
2023/03/23 12:48:28;;;;;;;3.33;3.10;;;14.20;99.90;;;;;;5055235;28;20407;-77
2023/03/23 12:51:12;;;;;;;5.13;4.80;;;14.20;99.90;;;;;;5053414;28;20409;-78
2023/03/23 12:53:51;;;;;;;4.63;4.43;;;14.30;99.90;;;;;;5051059;28;20493;-79
2023/03/23 12:56:32;;;;;;;4.57;4.20;;;14.30;99.90;;;;;;5052420;28;20546;-78
2023/03/23 12:59:26;;;;;;;3.37;3.27;;;14.30;99.90;;;;;;5035819;28;20739;-78
2023/03/23 13:01:59;;;;;;;5.77;5.57;;;14.30;99.90;;;;;;5054621;28;20463;-78
2023/03/23 13:04:37;;;;;;;4.30;4.00;;;14.40;99.90;;;;;;5055468;28;20412;-78
2023/03/23 13:07:08;;;;;;;5.70;5.30;;;14.30;99.90;;;;;;5054771;28;20403;-80